createdAt,value
2023-05-22T00:01:47.403Z,0
2023-05-22T00:06:31.402Z,0
2023-05-22T00:11:15.550Z,0
2023-05-22T00:15:59.773Z,0
2023-05-22T00:20:43.892Z,0
2023-05-22T00:25:28.116Z,0
2023-05-22T00:30:12.241Z,0
2023-05-22T00:34:56.436Z,0
2023-05-22T00:39:40.559Z,0
2023-05-22T00:44:24.764Z,0
2023-05-22T00:49:08.883Z,0
2023-05-22T00:53:53.106Z,0
2023-05-22T00:58:37.316Z,0
2023-05-22T01:03:21.464Z,0
2023-05-22T01:08:05.674Z,0
2023-05-22T01:12:49.758Z,0
2023-05-22T01:17:33.973Z,0
2023-05-22T01:22:18.092Z,0
2023-05-22T01:27:02.306Z,0
2023-05-22T01:31:46.449Z,0
2023-05-22T01:36:30.626Z,0
2023-05-22T01:41:14.846Z,0
2023-05-22T01:45:58.970Z,0
2023-05-22T01:50:43.179Z,0
2023-05-22T01:55:27.295Z,0
2023-05-22T02:00:11.504Z,0
2023-05-22T02:09:39.842Z,0
2023-05-22T02:14:23.959Z,0
2023-05-22T02:19:08.174Z,0
2023-05-22T02:23:52.384Z,0
2023-05-22T02:28:36.501Z,0
2023-05-22T02:38:04.827Z,0
2023-05-22T02:42:49.046Z,0
2023-05-22T02:47:33.158Z,0
2023-05-22T02:52:17.366Z,0
2023-05-22T02:57:01.586Z,0
2023-05-22T03:01:45.697Z,0
2023-05-22T03:11:14.033Z,0
2023-05-22T03:15:58.239Z,0
2023-05-22T03:20:42.364Z,5
2023-05-22T03:25:26.574Z,5
2023-05-22T03:30:10.719Z,11
2023-05-22T03:39:39.117Z,22
2023-05-22T03:44:23.232Z,28
2023-05-22T03:49:07.447Z,33
2023-05-22T03:53:51.566Z,39
2023-05-22T03:58:35.780Z,50
2023-05-22T04:03:19.896Z,56
2023-05-22T04:08:04.116Z,61
2023-05-22T04:12:48.313Z,67
2023-05-22T04:17:32.433Z,73
2023-05-22T04:22:16.670Z,78
2023-05-22T04:27:00.761Z,84
2023-05-22T04:41:13.329Z,106
2023-05-22T04:50:41.640Z,118
2023-05-22T05:00:09.970Z,129
2023-05-22T05:09:38.505Z,140
2023-05-22T05:14:22.729Z,146
2023-05-22T05:19:06.826Z,146
2023-05-22T05:23:51.043Z,151
2023-05-22T05:28:35.164Z,157
2023-05-22T05:33:19.380Z,163
2023-05-22T05:38:03.930Z,163
2023-05-22T05:47:32.178Z,174
2023-05-22T05:52:16.368Z,174
2023-05-22T05:57:00.505Z,180
2023-05-22T06:06:28.986Z,185
2023-05-22T06:11:13.039Z,185
2023-05-22T06:25:25.584Z,196
2023-05-22T06:30:09.758Z,202
2023-05-22T06:34:53.922Z,208
2023-05-22T06:39:38.033Z,213
2023-05-22T06:44:22.262Z,219
2023-05-22T06:49:06.502Z,225
2023-05-22T06:53:50.582Z,230
2023-05-22T06:58:34.915Z,236
2023-05-22T07:03:19.115Z,241
2023-05-22T07:08:03.221Z,247
2023-05-22T07:12:47.539Z,253
2023-05-22T07:17:31.615Z,264
2023-05-22T07:22:15.889Z,270
2023-05-22T07:27:00.013Z,275
2023-05-22T07:31:44.124Z,286
2023-05-22T07:36:28.450Z,1440
2023-05-22T07:41:12.427Z,1473
2023-05-22T07:45:56.646Z,1316
2023-05-22T07:50:40.765Z,1614
2023-05-22T08:00:09.108Z,1018
2023-05-22T08:04:53.302Z,511
2023-05-22T08:09:37.535Z,551
2023-05-22T08:14:21.655Z,1243
2023-05-22T08:19:06.062Z,1282
2023-05-22T08:23:49.961Z,663
2023-05-22T08:28:34.174Z,911
2023-05-22T08:33:18.294Z,1636
2023-05-22T08:38:02.656Z,461
2023-05-22T08:42:46.717Z,511
2023-05-22T08:47:31.020Z,1288
2023-05-22T08:52:15.091Z,455
2023-05-22T08:56:59.621Z,444
2023-05-22T09:06:27.935Z,798
2023-05-22T09:11:12.042Z,1170
2023-05-22T09:25:24.597Z,973
2023-05-22T09:34:53.056Z,1158
2023-05-22T09:39:37.113Z,1063
2023-05-22T09:44:21.592Z,2216
2023-05-22T09:59:35.721Z,2863
2023-05-22T10:04:19.837Z,2874
2023-05-22T10:09:03.953Z,2784
2023-05-22T10:37:29.027Z,2846
2023-05-22T10:46:57.382Z,2953
2023-05-22T10:56:25.675Z,2790
2023-05-22T11:05:54.144Z,2491
2023-05-22T11:20:06.794Z,3217
2023-05-22T11:29:34.994Z,3228
2023-05-22T11:34:19.098Z,2688
2023-05-22T11:39:03.520Z,2925
2023-05-22T11:43:47.633Z,3082
2023-05-22T11:48:31.845Z,3211
2023-05-22T11:59:01.663Z,3245
2023-05-22T12:17:58.416Z,3369
2023-05-22T12:22:42.537Z,3093
2023-05-22T12:41:39.313Z,3341
2023-05-22T12:55:51.863Z,2941
2023-05-22T13:11:05.892Z,2874
2023-05-22T13:15:50.007Z,2525
2023-05-22T13:20:34.224Z,2694
2023-05-22T13:25:18.442Z,2604
2023-05-22T13:30:02.558Z,2407
2023-05-22T13:34:46.780Z,1366
2023-05-22T13:44:15.114Z,2581
2023-05-22T13:53:43.457Z,2700
2023-05-22T13:58:27.671Z,2491
2023-05-22T14:07:56.001Z,2666
2023-05-22T14:12:40.292Z,2520
2023-05-22T14:17:24.323Z,1580
2023-05-22T14:26:52.751Z,2092
2023-05-22T14:45:49.422Z,641
2023-05-22T14:50:33.533Z,697
2023-05-22T15:00:01.968Z,855
2023-05-22T15:09:30.313Z,630
2023-05-22T15:18:58.643Z,1411
2023-05-22T15:23:42.758Z,1203
2023-05-22T15:28:26.969Z,1136
2023-05-22T15:33:11.187Z,1153
2023-05-22T15:37:55.305Z,1074
2023-05-22T15:47:23.636Z,1293
2023-05-22T15:52:07.852Z,1355
2023-05-22T16:01:36.187Z,1203
2023-05-22T16:06:20.405Z,1068
2023-05-22T16:15:48.777Z,838
2023-05-22T16:20:32.856Z,843
2023-05-22T16:25:17.580Z,815
2023-05-22T16:30:01.683Z,832
2023-05-22T16:34:45.902Z,815
2023-05-22T16:39:30.017Z,860
2023-05-22T16:44:14.444Z,810
2023-05-22T16:48:58.558Z,675
2023-05-22T16:53:42.771Z,630
2023-05-22T16:58:26.921Z,680
2023-05-22T17:03:11.105Z,601
2023-05-22T17:07:55.217Z,562
2023-05-22T17:12:39.444Z,540
2023-05-22T17:17:23.659Z,472
2023-05-22T17:22:07.832Z,506
2023-05-22T17:26:52.016Z,331
2023-05-22T17:31:36.153Z,286
2023-05-22T17:36:20.307Z,253
2023-05-22T17:45:48.940Z,202
2023-05-22T17:50:33.284Z,180
2023-05-22T17:55:17.502Z,163
2023-05-22T18:00:01.496Z,146
2023-05-22T18:04:45.747Z,123
2023-05-22T18:09:29.833Z,106
2023-05-22T18:18:58.153Z,73
2023-05-22T18:23:42.374Z,56
2023-05-22T18:28:26.487Z,45
2023-05-22T18:37:54.923Z,28
2023-05-22T18:42:39.040Z,22
2023-05-22T18:52:07.365Z,11
2023-05-22T18:56:51.582Z,5
2023-05-22T19:01:35.776Z,5
2023-05-22T19:11:04.533Z,0
2023-05-22T19:15:48.610Z,0
2023-05-22T19:25:16.882Z,0
2023-05-22T19:30:01.101Z,0
2023-05-22T19:39:29.420Z,0
2023-05-22T19:44:13.649Z,0
2023-05-22T19:53:41.981Z,0
2023-05-22T19:58:26.102Z,0
2023-05-22T20:03:10.644Z,0
2023-05-22T20:07:54.839Z,0
2023-05-22T20:12:38.960Z,0
2023-05-22T20:17:23.147Z,0
2023-05-22T20:26:51.474Z,0
2023-05-22T20:31:36.195Z,0
2023-05-22T20:36:20.304Z,0
2023-05-22T20:41:04.539Z,0
2023-05-22T20:45:48.640Z,0
2023-05-22T20:50:33.060Z,0
2023-05-22T20:55:17.369Z,0
2023-05-22T21:00:01.483Z,0
2023-05-22T21:04:45.699Z,0
2023-05-22T21:09:30.018Z,0
2023-05-22T21:14:14.271Z,0
2023-05-22T21:18:58.769Z,0
2023-05-22T21:23:43.357Z,0
2023-05-22T21:28:27.781Z,0
2023-05-22T21:33:11.898Z,0
2023-05-22T21:37:56.220Z,0
2023-05-22T21:42:40.626Z,0
2023-05-22T21:47:24.747Z,0
2023-05-22T21:52:08.949Z,0
2023-05-22T21:56:53.073Z,0
2023-05-22T22:01:37.577Z,0
2023-05-22T22:06:21.797Z,0
2023-05-22T22:11:05.908Z,0
2023-05-22T22:15:50.126Z,0
2023-05-22T22:20:34.243Z,0
2023-05-22T22:25:18.457Z,0
2023-05-22T22:30:02.669Z,0
2023-05-22T22:34:46.789Z,0
2023-05-22T22:39:31.063Z,0
2023-05-22T22:44:15.119Z,0
2023-05-22T22:48:59.398Z,0
2023-05-22T22:53:43.442Z,0
2023-05-22T22:58:27.704Z,0
2023-05-22T23:03:11.831Z,0
2023-05-22T23:07:56.003Z,0
2023-05-22T23:12:40.203Z,0
2023-05-22T23:17:24.324Z,0
2023-05-22T23:22:08.536Z,0
2023-05-22T23:26:52.647Z,0
2023-05-22T23:31:36.862Z,0
2023-05-22T23:36:20.971Z,0
2023-05-22T23:41:05.194Z,0
2023-05-22T23:45:49.801Z,0
2023-05-22T23:50:34.222Z,0
2023-05-22T23:55:18.330Z,0
